GLD1793 NWWK-NWWD

Flight info

Callsign GLD1793
Flight time 0h 17m
Altitude 7000
Route 2103S16442E KQ
Aircraft BE58/M-SDFGIRY/S

Departure

Time 2026-05-09 16:12
Airport Koumac Airport (NWWK)

Arrival

Time 2026-05-09 16:29
Airport Koné Airport (NWWD)
Time Latitude Longitude Altitude Speed Heading
2026-05-09 16:05 -20.54233 164.25973 34 ft 0 kts 348°
2026-05-09 16:09 -20.54230 164.25963 33 ft 5 kts 236°
2026-05-09 16:10 -20.54259 164.25967 34 ft 4 kts 164°
2026-05-09 16:10 -20.54313 164.25986 36 ft 10 kts 159°
2026-05-09 16:10 -20.54370 164.26011 37 ft 10 kts 156°
2026-05-09 16:10 -20.54449 164.26023 37 ft 14 kts 234°
2026-05-09 16:11 -20.54491 164.25926 36 ft 16 kts 247°
2026-05-09 16:11 -20.54500 164.25901 36 ft 19 kts 247°
2026-05-09 16:11 -20.54664 164.25489 55 ft 88 kts 246°
2026-05-09 16:11 -20.54919 164.24810 256 ft 108 kts 243°
2026-05-09 16:12 -20.55463 164.24366 749 ft 110 kts 173°
2026-05-09 16:12 -20.56006 164.25001 1077 ft 134 kts 103°
2026-05-09 16:12 -20.56043 164.26081 1383 ft 153 kts 85°
2026-05-09 16:12 -20.55845 164.27221 1690 ft 165 kts 80°
2026-05-09 16:13 -20.55613 164.28465 1840 ft 176 kts 80°
2026-05-09 16:13 -20.55373 164.29771 1982 ft 186 kts 80°
2026-05-09 16:13 -20.55407 164.31142 2108 ft 188 kts 111°
2026-05-09 16:13 -20.56249 164.32171 2241 ft 188 kts 151°
2026-05-09 16:14 -20.57418 164.32752 2512 ft 180 kts 152°
2026-05-09 16:14 -20.58420 164.33497 2891 ft 172 kts 141°
2026-05-09 16:14 -20.59329 164.34303 3280 ft 168 kts 140°
2026-05-09 16:14 -20.60227 164.35098 3658 ft 165 kts 140°
2026-05-09 16:15 -20.61109 164.35874 4037 ft 164 kts 141°
2026-05-09 16:15 -20.61991 164.36651 4425 ft 164 kts 142°
2026-05-09 16:15 -20.62861 164.37415 4815 ft 163 kts 142°
2026-05-09 16:15 -20.63773 164.38218 5001 ft 176 kts 141°
2026-05-09 16:16 -20.64748 164.39073 5011 ft 190 kts 142°
2026-05-09 16:16 -20.65792 164.39991 5010 ft 198 kts 142°
2026-05-09 16:16 -20.66869 164.40939 5008 ft 203 kts 142°
2026-05-09 16:16 -20.67962 164.41902 5006 ft 205 kts 142°
2026-05-09 16:17 -20.69072 164.42878 5008 ft 206 kts 142°
2026-05-09 16:17 -20.70181 164.43855 5006 ft 207 kts 141°
2026-05-09 16:17 -20.71296 164.44836 5006 ft 209 kts 141°
2026-05-09 16:17 -20.72415 164.45823 5004 ft 208 kts 141°
2026-05-09 16:18 -20.73532 164.46807 5005 ft 207 kts 142°
2026-05-09 16:18 -20.74650 164.47791 5005 ft 210 kts 142°
2026-05-09 16:18 -20.75775 164.48783 5000 ft 209 kts 141°
2026-05-09 16:18 -20.76979 164.49592 4992 ft 207 kts 164°
2026-05-09 16:19 -20.78394 164.49552 4992 ft 206 kts 198°
2026-05-09 16:19 -20.79647 164.48826 4994 ft 205 kts 217°
2026-05-09 16:19 -20.80878 164.48075 4997 ft 206 kts 197°
2026-05-09 16:19 -20.82298 164.48062 4994 ft 207 kts 164°
2026-05-09 16:20 -20.83487 164.48905 4990 ft 208 kts 129°
2026-05-09 16:20 -20.84258 164.50221 5001 ft 208 kts 119°
2026-05-09 16:20 -20.84940 164.51570 5005 ft 209 kts 120°
2026-05-09 16:20 -20.85656 164.52926 5011 ft 210 kts 121°
2026-05-09 16:21 -20.86392 164.54278 5003 ft 210 kts 121°
2026-05-09 16:21 -20.87122 164.55623 5008 ft 209 kts 121°
2026-05-09 16:21 -20.87853 164.56974 5006 ft 209 kts 121°
2026-05-09 16:21 -20.88584 164.58322 5009 ft 210 kts 121°
2026-05-09 16:22 -20.89316 164.59675 5004 ft 210 kts 121°
2026-05-09 16:22 -20.90043 164.61025 5011 ft 210 kts 121°
2026-05-09 16:22 -20.90774 164.62370 5010 ft 212 kts 121°
2026-05-09 16:22 -20.91513 164.63739 5002 ft 212 kts 121°
2026-05-09 16:23 -20.92249 164.65102 5001 ft 210 kts 121°
2026-05-09 16:23 -20.92964 164.66424 4996 ft 205 kts 121°
2026-05-09 16:23 -20.93675 164.67735 4991 ft 202 kts 121°
2026-05-09 16:23 -20.94374 164.69036 4989 ft 201 kts 121°
2026-05-09 16:24 -20.95071 164.70328 4990 ft 199 kts 121°
2026-05-09 16:24 -20.95764 164.71613 4991 ft 199 kts 121°
2026-05-09 16:24 -20.96457 164.72893 4988 ft 198 kts 122°
2026-05-09 16:24 -20.97143 164.74165 4988 ft 198 kts 122°
2026-05-09 16:25 -20.97830 164.75442 4988 ft 198 kts 122°
2026-05-09 16:25 -20.98523 164.76720 4990 ft 199 kts 122°
2026-05-09 16:25 -20.99215 164.78005 4991 ft 199 kts 122°
2026-05-09 16:25 -20.99901 164.79275 4973 ft 191 kts 121°
2026-05-09 16:26 -21.00555 164.80494 4765 ft 186 kts 122°
2026-05-09 16:26 -21.01194 164.81677 4555 ft 181 kts 122°
2026-05-09 16:26 -21.01811 164.82822 4238 ft 181 kts 120°
2026-05-09 16:26 -21.02387 164.84003 3799 ft 169 kts 120°
2026-05-09 16:27 -21.02949 164.84984 3367 ft 146 kts 124°
2026-05-09 16:27 -21.03502 164.85907 2467 ft 157 kts 125°
2026-05-09 16:27 -21.04037 164.86978 1564 ft 164 kts 114°
2026-05-09 16:27 -21.04728 164.87753 1138 ft 142 kts 169°
2026-05-09 16:28 -21.05561 164.87462 875 ft 118 kts 229°
2026-05-09 16:28 -21.05750 164.86701 701 ft 104 kts 267°
2026-05-09 16:28 -21.05689 164.85948 384 ft 99 kts 276°
2026-05-09 16:28 -21.05581 164.85250 125 ft 89 kts 277°
2026-05-09 16:29 -21.05557 164.85028 -7 ft 0 kts 245°
2026-05-09 16:29 -21.05422 164.83840 -10 ft 0 kts 202°